Home > Products > Valid Products > TAF

000
FTUS45 KLKN 011331 AAA
TAFTPH
TAF AMD
KTPH 011331Z 0114/0212 33012KT P6SM SKC
     FM020600 34018G28KT P6SM SCT100=



000
FTUS45 KLKN 011331 AAA
TAFTPH
TAF AMD
KTPH 011331Z 0114/0212 33012KT P6SM SKC
     FM020600 34018G28KT P6SM SCT100=



000
FTUS45 KLKN 011120
TAFELY
TAF
KELY 011120Z 0112/0212 34006KT P6SM SKC
     FM020200 01009KT P6SM BKN080=



000
FTUS45 KLKN 011120
TAFEKO
TAF
KEKO 011120Z 0112/0212 30005KT P6SM FEW120
     FM012100 28007KT P6SM BKN080=



000
FTUS45 KLKN 011120
TAFWMC
TAF
KWMC 011120Z 0112/0212 32005KT P6SM SKC
     FM012200 36010KT P6SM BKN090=



000
FTUS45 KLKN 011120
TAFWMC
TAF
KWMC 011120Z 0112/0212 32005KT P6SM SKC
     FM012200 36010KT P6SM BKN090=



000
FTUS45 KLKN 011120
TAFEKO
TAF
KEKO 011120Z 0112/0212 30005KT P6SM FEW120
     FM012100 28007KT P6SM BKN080=



000
FTUS45 KLKN 011120
TAFWMC
TAF
KWMC 011120Z 0112/0212 32005KT P6SM SKC
     FM012200 36010KT P6SM BKN090=



000
FTUS45 KLKN 011120
TAFTPH
TAF
KTPH 011120Z 0112/0212 33020KT P6SM SKC
     FM011500 34012KT P6SM SKC
     FM020600 34018G28KT P6SM SCT100=



000
FTUS45 KLKN 011120
TAFTPH
TAF
KTPH 011120Z 0112/0212 33020KT P6SM SKC
     FM011500 34012KT P6SM SKC
     FM020600 34018G28KT P6SM SCT100=



000
FTUS45 KLKN 011120
TAFTPH
TAF
KTPH 011120Z 0112/0212 33020KT P6SM SKC
     FM011500 34012KT P6SM SKC
     FM020600 34018G28KT P6SM SCT100=



000
FTUS45 KLKN 011120
TAFELY
TAF
KELY 011120Z 0112/0212 34006KT P6SM SKC
     FM020200 01009KT P6SM BKN080=



000
FTUS45 KLKN 011120
TAFELY
TAF
KELY 011120Z 0112/0212 34006KT P6SM SKC
     FM020200 01009KT P6SM BKN080=



000
FTUS45 KLKN 011120
TAFEKO
TAF
KEKO 011120Z 0112/0212 30005KT P6SM FEW120
     FM012100 28007KT P6SM BKN080=



000
FTUS45 KLKN 011120
TAFEKO
TAF
KEKO 011120Z 0112/0212 30005KT P6SM FEW120
     FM012100 28007KT P6SM BKN080=



000
FTUS45 KLKN 011120
TAFTPH
TAF
KTPH 011120Z 0112/0212 33020KT P6SM SKC
     FM011500 34012KT P6SM SKC
     FM020600 34018G28KT P6SM SCT100=



000
FTUS45 KLKN 011120
TAFWMC
TAF
KWMC 011120Z 0112/0212 32005KT P6SM SKC
     FM012200 36010KT P6SM BKN090=



000
FTUS45 KLKN 011120
TAFELY
TAF
KELY 011120Z 0112/0212 34006KT P6SM SKC
     FM020200 01009KT P6SM BKN080=



000
FTUS45 KLKN 010520
TAFTPH
TAF
KTPH 010520Z 0106/0206 35018KT P6SM SKC
     FM011000 34011KT P6SM SKC=



000
FTUS45 KLKN 010520
TAFELY
TAF
KELY 010520Z 0106/0206 31011KT P6SM FEW120
     FM010800 34007KT 6SM HZ BLDU SKC
     FM011200 34007KT P6SM SKC=



000
FTUS45 KLKN 010520
TAFELY
TAF
KELY 010520Z 0106/0206 31011KT P6SM FEW120
     FM010800 34007KT 6SM HZ BLDU SKC
     FM011200 34007KT P6SM SKC=



000
FTUS45 KLKN 010520
TAFEKO
TAF
KEKO 010520Z 0106/0206 VRB06KT P6SM FEW120
     FM012100 28007KT P6SM BKN080=



000
FTUS45 KLKN 010520
TAFWMC
TAF
KWMC 010520Z 0106/0206 33007KT P6SM SKC
     FM012200 36010KT P6SM BKN090=



000
FTUS45 KLKN 010520
TAFTPH
TAF
KTPH 010520Z 0106/0206 35018KT P6SM SKC
     FM011000 34011KT P6SM SKC=



000
FTUS45 KLKN 010327 AAA
TAFEKO
TAF AMD
KEKO 010327Z 0103/0124 35008G18KT 6SM BLDU FEW120
     FM010800 36003KT P6SM SKC
     FM012100 28007KT P6SM BKN080=



000
FTUS45 KLKN 010327 AAA
TAFEKO
TAF AMD
KEKO 010327Z 0103/0124 35008G18KT 6SM BLDU FEW120
     FM010800 36003KT P6SM SKC
     FM012100 28007KT P6SM BKN080=



000
FTUS45 KLKN 010327 AAA
TAFEKO
TAF AMD
KEKO 010327Z 0103/0124 35008G18KT 6SM BLDU FEW120
     FM010800 36003KT P6SM SKC
     FM012100 28007KT P6SM BKN080=



000
FTUS45 KLKN 010327 AAA
TAFEKO
TAF AMD
KEKO 010327Z 0103/0124 35008G18KT 6SM BLDU FEW120
     FM010800 36003KT P6SM SKC
     FM012100 28007KT P6SM BKN080=



000
FTUS45 KLKN 010143 AAA
TAFELY
TAF AMD
KELY 010143Z 0102/0124 28012G22KT P6SM BKN120
     FM010400 31011KT P6SM FEW120
     FM010800 34007KT 6SM HZ BLDU SKC
     FM011200 34007KT P6SM SKC=



000
FTUS45 KLKN 010143 AAA
TAFELY
TAF AMD
KELY 010143Z 0102/0124 28012G22KT P6SM BKN120
     FM010400 31011KT P6SM FEW120
     FM010800 34007KT 6SM HZ BLDU SKC
     FM011200 34007KT P6SM SKC=



000
FTUS45 KLKN 010129 AAA
TAFWMC
TAF AMD
KWMC 010129Z 0101/0124 33015G25KT 6SM BLDU BKN090
     FM010600 34007KT P6SM FEW090=



000
FTUS45 KLKN 010129 AAA
TAFWMC
TAF AMD
KWMC 010129Z 0101/0124 33015G25KT 6SM BLDU BKN090
     FM010600 34007KT P6SM FEW090=



000
FTUS45 KLKN 010129 AAA
TAFWMC
TAF AMD
KWMC 010129Z 0101/0124 33015G25KT 6SM BLDU BKN090
     FM010600 34007KT P6SM FEW090=



000
FTUS45 KLKN 010129 AAA
TAFWMC
TAF AMD
KWMC 010129Z 0101/0124 33015G25KT 6SM BLDU BKN090
     FM010600 34007KT P6SM FEW090=



000
FTUS45 KLKN 312320
TAFWMC
TAF
KWMC 312320Z 0100/0124 23020G32KT P6SM FEW120 SCT200
      TEMPO 0100/0103 4SM BLDU
     FM010300 31010G20KT P6SM SCT120
     FM010500 33008KT P6SM FEW120=



000
FTUS45 KLKN 312320
TAFTPH
TAF
KTPH 312320Z 0100/0124 25012G22KT P6SM SCT200
     FM010200 33022G32KT P6SM FEW200
     FM010500 36012KT P6SM SKC=



000
FTUS45 KLKN 312320
TAFEKO
TAF
KEKO 312320Z 0100/0124 25022G35KT P6SM FEW120 SCT250
      TEMPO 0100/0103 4SM BLDU
     FM010300 27013G23KT 5SM DU SCT120
     FM010600 30008KT P6SM FEW120=



000
FTUS45 KLKN 312320
TAFEKO
TAF
KEKO 312320Z 0100/0124 25022G35KT P6SM FEW120 SCT250
      TEMPO 0100/0103 4SM BLDU
     FM010300 27013G23KT 5SM DU SCT120
     FM010600 30008KT P6SM FEW120=



000
FTUS45 KLKN 312320
TAFELY
TAF
KELY 312320Z 0100/0124 18016G33KT 5SM BLDU SCT250
     FM010200 25012G20KT P6SM SCT200
     FM010500 32008KT P6SM SCT200=



000
FTUS45 KLKN 312320
TAFTPH
TAF
KTPH 312320Z 0100/0124 25012G22KT P6SM SCT200
     FM010200 33022G32KT P6SM FEW200
     FM010500 36012KT P6SM SKC=



000
FTUS45 KLKN 312320
TAFWMC
TAF
KWMC 312320Z 0100/0124 23020G32KT P6SM FEW120 SCT200
      TEMPO 0100/0103 4SM BLDU
     FM010300 31010G20KT P6SM SCT120
     FM010500 33008KT P6SM FEW120=



000
FTUS45 KLKN 311720
TAFTPH
TAF
KTPH 311720Z 3118/0118 36008KT P6SM BKN250
     FM312100 25012G22KT P6SM SCT200
     FM010200 33022G32KT P6SM FEW200=



000
FTUS45 KLKN 311720
TAFELY
TAF
KELY 311720Z 3118/0118 18010KT P6SM BKN250
     FM312000 18016G26KT P6SM SCT250
     FM010200 25012G20KT P6SM SCT200
     FM010500 32008KT P6SM SCT200=



000
FTUS45 KLKN 311720
TAFEKO
TAF
KEKO 311720Z 3118/0118 VRB03KT P6SM BKN250
     FM311900 24012G22KT P6SM SCT250
     FM312100 25022G35KT P6SM FEW120 SCT250
     FM010200 27013G23KT 5SM DU SCT120
     FM010600 30008KT P6SM FEW120=



000
FTUS45 KLKN 311720
TAFTPH
TAF
KTPH 311720Z 3118/0118 36008KT P6SM BKN250
     FM312100 25012G22KT P6SM SCT200
     FM010200 33022G32KT P6SM FEW200=



000
FTUS45 KLKN 311720
TAFELY
TAF
KELY 311720Z 3118/0118 18010KT P6SM BKN250
     FM312000 18016G26KT P6SM SCT250
     FM010200 25012G20KT P6SM SCT200
     FM010500 32008KT P6SM SCT200=



000
FTUS45 KLKN 311720
TAFELY
TAF
KELY 311720Z 3118/0118 18010KT P6SM BKN250
     FM312000 18016G26KT P6SM SCT250
     FM010200 25012G20KT P6SM SCT200
     FM010500 32008KT P6SM SCT200=



000
FTUS45 KLKN 311720
TAFWMC
TAF
KWMC 311720Z 3118/0118 22006KT P6SM SCT250
     FM311900 23012G22KT P6SM SCT120 BKN250
     FM312100 26020G30KT P6SM SCT120
     FM010200 31010G20KT P6SM SCT120
     FM010500 33008KT P6SM FEW120=



000
FTUS45 KLKN 311720
TAFTPH
TAF
KTPH 311720Z 3118/0118 36008KT P6SM BKN250
     FM312100 25012G22KT P6SM SCT200
     FM010200 33022G32KT P6SM FEW200=



000
FTUS45 KLKN 311720
TAFWMC
TAF
KWMC 311720Z 3118/0118 22006KT P6SM SCT250
     FM311900 23012G22KT P6SM SCT120 BKN250
     FM312100 26020G30KT P6SM SCT120
     FM010200 31010G20KT P6SM SCT120
     FM010500 33008KT P6SM FEW120=



000
FTUS45 KLKN 311720
TAFELY
TAF
KELY 311720Z 3118/0118 18010KT P6SM BKN250
     FM312000 18016G26KT P6SM SCT250
     FM010200 25012G20KT P6SM SCT200
     FM010500 32008KT P6SM SCT200=



000
FTUS45 KLKN 311720
TAFTPH
TAF
KTPH 311720Z 3118/0118 36008KT P6SM BKN250
     FM312100 25012G22KT P6SM SCT200
     FM010200 33022G32KT P6SM FEW200=



000
FTUS45 KLKN 311720
TAFWMC
TAF
KWMC 311720Z 3118/0118 22006KT P6SM SCT250
     FM311900 23012G22KT P6SM SCT120 BKN250
     FM312100 26020G30KT P6SM SCT120
     FM010200 31010G20KT P6SM SCT120
     FM010500 33008KT P6SM FEW120=



000
FTUS45 KLKN 311720
TAFWMC
TAF
KWMC 311720Z 3118/0118 22006KT P6SM SCT250
     FM311900 23012G22KT P6SM SCT120 BKN250
     FM312100 26020G30KT P6SM SCT120
     FM010200 31010G20KT P6SM SCT120
     FM010500 33008KT P6SM FEW120=



000
FTUS45 KLKN 311720
TAFEKO
TAF
KEKO 311720Z 3118/0118 VRB03KT P6SM BKN250
     FM311900 24012G22KT P6SM SCT250
     FM312100 25022G35KT P6SM FEW120 SCT250
     FM010200 27013G23KT 5SM DU SCT120
     FM010600 30008KT P6SM FEW120=



000
FTUS45 KLKN 311720
TAFEKO
TAF
KEKO 311720Z 3118/0118 VRB03KT P6SM BKN250
     FM311900 24012G22KT P6SM SCT250
     FM312100 25022G35KT P6SM FEW120 SCT250
     FM010200 27013G23KT 5SM DU SCT120
     FM010600 30008KT P6SM FEW120=



000
FTUS45 KLKN 311720
TAFEKO
TAF
KEKO 311720Z 3118/0118 VRB03KT P6SM BKN250
     FM311900 24012G22KT P6SM SCT250
     FM312100 25022G35KT P6SM FEW120 SCT250
     FM010200 27013G23KT 5SM DU SCT120
     FM010600 30008KT P6SM FEW120=



000
FTUS45 KLKN 311120
TAFWMC
TAF
KWMC 311120Z 3112/0112 22006KT P6SM BKN250
     FM311800 23012G22KT P6SM SCT120 BKN250
     FM312100 26020G30KT P6SM SCT120
     FM010200 31010G20KT P6SM SCT120
     FM010500 33008KT P6SM FEW120=



000
FTUS45 KLKN 311120
TAFELY
TAF
KELY 311120Z 3112/0112 18010KT P6SM BKN250
     FM312000 18016G26KT P6SM SCT250
     FM010200 25012G20KT P6SM SCT200
     FM010500 32008KT P6SM SCT200=



000
FTUS45 KLKN 311120
TAFELY
TAF
KELY 311120Z 3112/0112 18010KT P6SM BKN250
     FM312000 18016G26KT P6SM SCT250
     FM010200 25012G20KT P6SM SCT200
     FM010500 32008KT P6SM SCT200=



000
FTUS45 KLKN 311120
TAFTPH
TAF
KTPH 311120Z 3112/0112 36008KT P6SM BKN250
     FM311800 25012G22KT P6SM SCT200
     FM010200 33022G32KT P6SM FEW200=



000
FTUS45 KLKN 311120
TAFEKO
TAF
KEKO 311120Z 3112/0112 VRB03KT P6SM BKN250
     FM311800 24012G22KT P6SM SCT250
     FM312000 25022G32KT P6SM FEW120 SCT250
     FM010200 27013G23KT 5SM DU SCT120
     FM010600 30008KT P6SM FEW120=



000
FTUS45 KLKN 311120
TAFWMC
TAF
KWMC 311120Z 3112/0112 22006KT P6SM BKN250
     FM311800 23012G22KT P6SM SCT120 BKN250
     FM312100 26020G30KT P6SM SCT120
     FM010200 31010G20KT P6SM SCT120
     FM010500 33008KT P6SM FEW120=



000
FTUS45 KLKN 311120
TAFTPH
TAF
KTPH 311120Z 3112/0112 36008KT P6SM BKN250
     FM311800 25012G22KT P6SM SCT200
     FM010200 33022G32KT P6SM FEW200=



000
FTUS45 KLKN 311120
TAFEKO
TAF
KEKO 311120Z 3112/0112 VRB03KT P6SM BKN250
     FM311800 24012G22KT P6SM SCT250
     FM312000 25022G32KT P6SM FEW120 SCT250
     FM010200 27013G23KT 5SM DU SCT120
     FM010600 30008KT P6SM FEW120=



000
FTUS45 KLKN 310520
TAFELY
TAF
KELY 310520Z 3106/0106 18010KT P6SM SCT250
     FM311900 18017G26KT P6SM SCT250
     FM010200 31012G20KT P6SM BKN150=



000
FTUS45 KLKN 310520
TAFEKO
TAF
KEKO 310520Z 3106/0106 VRB03KT P6SM SCT250
     FM311800 24014G24KT P6SM SCT250
     FM312000 25025G35KT 5SM DU FEW120 SCT250
     FM010200 27015G25KT 5SM HZ BKN120=



000
FTUS45 KLKN 310520
TAFWMC
TAF
KWMC 310520Z 3106/0106 18008KT P6SM BKN250
     FM311800 23017G27KT P6SM SCT100 BKN250
     FM312100 26020G30KT 5SM BLDU SCT100
     FM010200 31010G20KT P6SM BKN090=



000
FTUS45 KLKN 310520
TAFTPH
TAF
KTPH 310520Z 3106/0106 35007KT P6SM FEW250
     FM312000 29018G28KT P6SM SKC
     FM010200 33025G35KT P6SM FEW150=



000
FTUS45 KLKN 310520
TAFTPH
TAF
KTPH 310520Z 3106/0106 35007KT P6SM FEW250
     FM312000 29018G28KT P6SM SKC
     FM010200 33025G35KT P6SM FEW150=



000
FTUS45 KLKN 310520
TAFEKO
TAF
KEKO 310520Z 3106/0106 VRB03KT P6SM SCT250
     FM311800 24014G24KT P6SM SCT250
     FM312000 25025G35KT 5SM DU FEW120 SCT250
     FM010200 27015G25KT 5SM HZ BKN120=



000
FTUS45 KLKN 310520
TAFELY
TAF
KELY 310520Z 3106/0106 18010KT P6SM SCT250
     FM311900 18017G26KT P6SM SCT250
     FM010200 31012G20KT P6SM BKN150=



000
FTUS45 KLKN 310520
TAFEKO
TAF
KEKO 310520Z 3106/0106 VRB03KT P6SM SCT250
     FM311800 24014G24KT P6SM SCT250
     FM312000 25025G35KT 5SM DU FEW120 SCT250
     FM010200 27015G25KT 5SM HZ BKN120=



000
FTUS45 KLKN 310520
TAFWMC
TAF
KWMC 310520Z 3106/0106 18008KT P6SM BKN250
     FM311800 23017G27KT P6SM SCT100 BKN250
     FM312100 26020G30KT 5SM BLDU SCT100
     FM010200 31010G20KT P6SM BKN090=



000
FTUS45 KLKN 310520
TAFEKO
TAF
KEKO 310520Z 3106/0106 VRB03KT P6SM SCT250
     FM311800 24014G24KT P6SM SCT250
     FM312000 25025G35KT 5SM DU FEW120 SCT250
     FM010200 27015G25KT 5SM HZ BKN120=



000
FTUS45 KLKN 310520
TAFELY
TAF
KELY 310520Z 3106/0106 18010KT P6SM SCT250
     FM311900 18017G26KT P6SM SCT250
     FM010200 31012G20KT P6SM BKN150=



000
FTUS45 KLKN 310520
TAFELY
TAF
KELY 310520Z 3106/0106 18010KT P6SM SCT250
     FM311900 18017G26KT P6SM SCT250
     FM010200 31012G20KT P6SM BKN150=



000
FTUS45 KLKN 310520
TAFTPH
TAF
KTPH 310520Z 3106/0106 35007KT P6SM FEW250
     FM312000 29018G28KT P6SM SKC
     FM010200 33025G35KT P6SM FEW150=



000
FTUS45 KLKN 310520
TAFWMC
TAF
KWMC 310520Z 3106/0106 18008KT P6SM BKN250
     FM311800 23017G27KT P6SM SCT100 BKN250
     FM312100 26020G30KT 5SM BLDU SCT100
     FM010200 31010G20KT P6SM BKN090=



000
FTUS45 KLKN 310520
TAFTPH
TAF
KTPH 310520Z 3106/0106 35007KT P6SM FEW250
     FM312000 29018G28KT P6SM SKC
     FM010200 33025G35KT P6SM FEW150=



000
FTUS45 KLKN 310520
TAFWMC
TAF
KWMC 310520Z 3106/0106 18008KT P6SM BKN250
     FM311800 23017G27KT P6SM SCT100 BKN250
     FM312100 26020G30KT 5SM BLDU SCT100
     FM010200 31010G20KT P6SM BKN090=



000
FTUS45 KLKN 302321
TAFELY
TAF
KELY 302321Z 3100/3124 20010G18KT P6SM SCT250
     FM310300 18010KT P6SM SCT250
     FM311900 18016G26KT P6SM SKC=



000
FTUS45 KLKN 302321
TAFELY
TAF
KELY 302321Z 3100/3124 20010G18KT P6SM SCT250
     FM310300 18010KT P6SM SCT250
     FM311900 18016G26KT P6SM SKC=



000
FTUS45 KLKN 302321
TAFTPH
TAF
KTPH 302321Z 3100/3124 20009KT P6SM SKC
     FM310500 35007KT P6SM FEW250
     FM312000 29018G28KT P6SM SKC=



000
FTUS45 KLKN 302321
TAFEKO
TAF
KEKO 302321Z 3100/3124 22008KT P6SM FEW250
     FM310100 VRB03KT P6SM SCT250
     FM311800 24014G24KT P6SM SKC
     FM312000 25022G32KT P6SM FEW120=



000
FTUS45 KLKN 302321
TAFWMC
TAF
KWMC 302321Z 3100/3124 18006KT P6SM BKN250
     FM311900 23017G27KT P6SM SCT100=



000
FTUS45 KLKN 302321
TAFWMC
TAF
KWMC 302321Z 3100/3124 18006KT P6SM BKN250
     FM311900 23017G27KT P6SM SCT100=



000
FTUS45 KLKN 302321
TAFTPH
TAF
KTPH 302321Z 3100/3124 20009KT P6SM SKC
     FM310500 35007KT P6SM FEW250
     FM312000 29018G28KT P6SM SKC=



000
FTUS45 KLKN 302321
TAFEKO
TAF
KEKO 302321Z 3100/3124 22008KT P6SM FEW250
     FM310100 VRB03KT P6SM SCT250
     FM311800 24014G24KT P6SM SKC
     FM312000 25022G32KT P6SM FEW120=



000
FTUS45 KLKN 302321
TAFELY
TAF
KELY 302321Z 3100/3124 20010G18KT P6SM SCT250
     FM310300 18010KT P6SM SCT250
     FM311900 18016G26KT P6SM SKC=



000
FTUS45 KLKN 302321
TAFWMC
TAF
KWMC 302321Z 3100/3124 18006KT P6SM BKN250
     FM311900 23017G27KT P6SM SCT100=



000
FTUS45 KLKN 302321
TAFTPH
TAF
KTPH 302321Z 3100/3124 20009KT P6SM SKC
     FM310500 35007KT P6SM FEW250
     FM312000 29018G28KT P6SM SKC=



000
FTUS45 KLKN 302321
TAFELY
TAF
KELY 302321Z 3100/3124 20010G18KT P6SM SCT250
     FM310300 18010KT P6SM SCT250
     FM311900 18016G26KT P6SM SKC=



000
FTUS45 KLKN 302321
TAFEKO
TAF
KEKO 302321Z 3100/3124 22008KT P6SM FEW250
     FM310100 VRB03KT P6SM SCT250
     FM311800 24014G24KT P6SM SKC
     FM312000 25022G32KT P6SM FEW120=



000
FTUS45 KLKN 302321
TAFTPH
TAF
KTPH 302321Z 3100/3124 20009KT P6SM SKC
     FM310500 35007KT P6SM FEW250
     FM312000 29018G28KT P6SM SKC=



000
FTUS45 KLKN 302321
TAFEKO
TAF
KEKO 302321Z 3100/3124 22008KT P6SM FEW250
     FM310100 VRB03KT P6SM SCT250
     FM311800 24014G24KT P6SM SKC
     FM312000 25022G32KT P6SM FEW120=



000
FTUS45 KLKN 302321
TAFWMC
TAF
KWMC 302321Z 3100/3124 18006KT P6SM BKN250
     FM311900 23017G27KT P6SM SCT100=



000
FTUS45 KLKN 301720
TAFTPH
TAF
KTPH 301720Z 3018/3118 VRB05KT P6SM SKC
     FM302000 19009KT P6SM SCT250
     FM310500 35007KT P6SM SCT250=



000
FTUS45 KLKN 301720
TAFEKO
TAF
KEKO 301720Z 3018/3118 VRB05KT P6SM SKC
     FM302000 23008KT P6SM FEW250
     FM310100 VRB03KT P6SM SCT250=



000
FTUS45 KLKN 301720
TAFELY
TAF
KELY 301720Z 3018/3118 17007KT P6SM SKC
     FM302000 20010KT P6SM SCT250=



000
FTUS45 KLKN 301720
TAFTPH
TAF
KTPH 301720Z 3018/3118 VRB05KT P6SM SKC
     FM302000 19009KT P6SM SCT250
     FM310500 35007KT P6SM SCT250=



000
FTUS45 KLKN 301720
TAFEKO
TAF
KEKO 301720Z 3018/3118 VRB05KT P6SM SKC
     FM302000 23008KT P6SM FEW250
     FM310100 VRB03KT P6SM SCT250=



000
FTUS45 KLKN 301720
TAFWMC
TAF
KWMC 301720Z 3018/3118 VRB06KT P6SM FEW250
     FM302100 24010KT P6SM SCT250
     FM310100 22006KT P6SM SCT250=



000
FTUS45 KLKN 301720
TAFELY
TAF
KELY 301720Z 3018/3118 17007KT P6SM SKC
     FM302000 20010KT P6SM SCT250=



000
FTUS45 KLKN 301720
TAFEKO
TAF
KEKO 301720Z 3018/3118 VRB05KT P6SM SKC
     FM302000 23008KT P6SM FEW250
     FM310100 VRB03KT P6SM SCT250=



000
FTUS45 KLKN 301720
TAFWMC
TAF
KWMC 301720Z 3018/3118 VRB06KT P6SM FEW250
     FM302100 24010KT P6SM SCT250
     FM310100 22006KT P6SM SCT250=



000
FTUS45 KLKN 301720
TAFELY
TAF
KELY 301720Z 3018/3118 17007KT P6SM SKC
     FM302000 20010KT P6SM SCT250=



000
FTUS45 KLKN 301720
TAFTPH
TAF
KTPH 301720Z 3018/3118 VRB05KT P6SM SKC
     FM302000 19009KT P6SM SCT250
     FM310500 35007KT P6SM SCT250=



000
FTUS45 KLKN 301720
TAFWMC
TAF
KWMC 301720Z 3018/3118 VRB06KT P6SM FEW250
     FM302100 24010KT P6SM SCT250
     FM310100 22006KT P6SM SCT250=



000
FTUS45 KLKN 301720
TAFELY
TAF
KELY 301720Z 3018/3118 17007KT P6SM SKC
     FM302000 20010KT P6SM SCT250=



000
FTUS45 KLKN 301720
TAFEKO
TAF
KEKO 301720Z 3018/3118 VRB05KT P6SM SKC
     FM302000 23008KT P6SM FEW250
     FM310100 VRB03KT P6SM SCT250=



000
FTUS45 KLKN 301720
TAFTPH
TAF
KTPH 301720Z 3018/3118 VRB05KT P6SM SKC
     FM302000 19009KT P6SM SCT250
     FM310500 35007KT P6SM SCT250=



000
FTUS45 KLKN 301720
TAFWMC
TAF
KWMC 301720Z 3018/3118 VRB06KT P6SM FEW250
     FM302100 24010KT P6SM SCT250
     FM310100 22006KT P6SM SCT250=



000
FTUS45 KLKN 301210 RRA
TAFWMC
TAF
KWMC 301210Z 3012/3112 VRB05KT P6SM FEW200
     FM302000 21009KT P6SM SCT200
     FM310100 22007KT P6SM SCT200=



000
FTUS45 KLKN 301210 RRA
TAFELY
TAF
KELY 301210Z 3012/3112 17009KT P6SM SKC
     FM302000 20009KT P6SM FEW200=



000
FTUS45 KLKN 301210 RRA
TAFEKO
TAF
KEKO 301210Z 3012/3112 VRB05KT P6SM SKC
     FM301700 23009KT P6SM FEW200
     FM310100 VRB04KT P6SM SCT200=



000
FTUS45 KLKN 301210 RRA
TAFWMC
TAF
KWMC 301210Z 3012/3112 VRB05KT P6SM FEW200
     FM302000 21009KT P6SM SCT200
     FM310100 22007KT P6SM SCT200=



000
FTUS45 KLKN 301210 RRA
TAFELY
TAF
KELY 301210Z 3012/3112 17009KT P6SM SKC
     FM302000 20009KT P6SM FEW200=



000
FTUS45 KLKN 301210 RRA
TAFTPH
TAF
KTPH 301210Z 3012/3112 36009KT P6SM SKC
     FM301800 21010KT P6SM SKC
     FM310300 18007KT P6SM SCT200=



000
FTUS45 KLKN 301210 RRA
TAFWMC
TAF
KWMC 301210Z 3012/3112 VRB05KT P6SM FEW200
     FM302000 21009KT P6SM SCT200
     FM310100 22007KT P6SM SCT200=



000
FTUS45 KLKN 301210 RRA
TAFTPH
TAF
KTPH 301210Z 3012/3112 36009KT P6SM SKC
     FM301800 21010KT P6SM SKC
     FM310300 18007KT P6SM SCT200=



000
FTUS45 KLKN 301210 RRA
TAFELY
TAF
KELY 301210Z 3012/3112 17009KT P6SM SKC
     FM302000 20009KT P6SM FEW200=



000
FTUS45 KLKN 301210 RRA
TAFTPH
TAF
KTPH 301210Z 3012/3112 36009KT P6SM SKC
     FM301800 21010KT P6SM SKC
     FM310300 18007KT P6SM SCT200=



000
FTUS45 KLKN 301210 RRA
TAFEKO
TAF
KEKO 301210Z 3012/3112 VRB05KT P6SM SKC
     FM301700 23009KT P6SM FEW200
     FM310100 VRB04KT P6SM SCT200=



000
FTUS45 KLKN 301210 RRA
TAFELY
TAF
KELY 301210Z 3012/3112 17009KT P6SM SKC
     FM302000 20009KT P6SM FEW200=



000
FTUS45 KLKN 301210 RRA
TAFEKO
TAF
KEKO 301210Z 3012/3112 VRB05KT P6SM SKC
     FM301700 23009KT P6SM FEW200
     FM310100 VRB04KT P6SM SCT200=



000
FTUS45 KLKN 301210 RRA
TAFWMC
TAF
KWMC 301210Z 3012/3112 VRB05KT P6SM FEW200
     FM302000 21009KT P6SM SCT200
     FM310100 22007KT P6SM SCT200=



000
FTUS45 KLKN 301210 RRA
TAFTPH
TAF
KTPH 301210Z 3012/3112 36009KT P6SM SKC
     FM301800 21010KT P6SM SKC
     FM310300 18007KT P6SM SCT200=



000
FTUS45 KLKN 301210 RRA
TAFEKO
TAF
KEKO 301210Z 3012/3112 VRB05KT P6SM SKC
     FM301700 23009KT P6SM FEW200
     FM310100 VRB04KT P6SM SCT200=



000
FTUS45 KLKN 300530
TAFWMC
TAF
KWMC 300530Z 3006/3106 VRB05KT P6SM FEW200
     FM302000 21009KT P6SM SCT200
     FM310100 22007KT P6SM SCT200=



000
FTUS45 KLKN 300530
TAFTPH
TAF
KTPH 300530Z 3006/3106 36009KT P6SM SKC
     FM301800 21010KT P6SM SKC
     FM310300 18007KT P6SM SCT200=



000
FTUS45 KLKN 300530
TAFEKO
TAF
KEKO 300530Z 3006/3106 VRB05KT P6SM SKC
     FM301700 23009KT P6SM FEW200
     FM310100 VRB04KT P6SM SCT200=



000
FTUS45 KLKN 300530
TAFELY
TAF
KELY 300530Z 3006/3106 17009KT P6SM SKC
     FM302000 20009KT P6SM FEW200=



000
FTUS45 KLKN 300530
TAFTPH
TAF
KTPH 300530Z 3006/3106 36009KT P6SM SKC
     FM301800 21010KT P6SM SKC
     FM310300 18007KT P6SM SCT200=



000
FTUS45 KLKN 300530
TAFWMC
TAF
KWMC 300530Z 3006/3106 VRB05KT P6SM FEW200
     FM302000 21009KT P6SM SCT200
     FM310100 22007KT P6SM SCT200=



000
FTUS45 KLKN 300530
TAFWMC
TAF
KWMC 300530Z 3006/3106 VRB05KT P6SM FEW200
     FM302000 21009KT P6SM SCT200
     FM310100 22007KT P6SM SCT200=



000
FTUS45 KLKN 300530
TAFELY
TAF
KELY 300530Z 3006/3106 17009KT P6SM SKC
     FM302000 20009KT P6SM FEW200=



000
FTUS45 KLKN 300530
TAFEKO
TAF
KEKO 300530Z 3006/3106 VRB05KT P6SM SKC
     FM301700 23009KT P6SM FEW200
     FM310100 VRB04KT P6SM SCT200=



000
FTUS45 KLKN 300530
TAFTPH
TAF
KTPH 300530Z 3006/3106 36009KT P6SM SKC
     FM301800 21010KT P6SM SKC
     FM310300 18007KT P6SM SCT200=



000
FTUS45 KLKN 300530
TAFELY
TAF
KELY 300530Z 3006/3106 17009KT P6SM SKC
     FM302000 20009KT P6SM FEW200=



000
FTUS45 KLKN 300530
TAFEKO
TAF
KEKO 300530Z 3006/3106 VRB05KT P6SM SKC
     FM301700 23009KT P6SM FEW200
     FM310100 VRB04KT P6SM SCT200=



000
FTUS45 KLKN 300530
TAFELY
TAF
KELY 300530Z 3006/3106 17009KT P6SM SKC
     FM302000 20009KT P6SM FEW200=



000
FTUS45 KLKN 300530
TAFWMC
TAF
KWMC 300530Z 3006/3106 VRB05KT P6SM FEW200
     FM302000 21009KT P6SM SCT200
     FM310100 22007KT P6SM SCT200=



000
FTUS45 KLKN 300530
TAFTPH
TAF
KTPH 300530Z 3006/3106 36009KT P6SM SKC
     FM301800 21010KT P6SM SKC
     FM310300 18007KT P6SM SCT200=



000
FTUS45 KLKN 300530
TAFEKO
TAF
KEKO 300530Z 3006/3106 VRB05KT P6SM SKC
     FM301700 23009KT P6SM FEW200
     FM310100 VRB04KT P6SM SCT200=



000
FTUS45 KLKN 292320
TAFEKO
TAF
KEKO 292320Z 3000/3024 VRB05KT P6SM SKC
     FM301700 23009KT P6SM FEW200=



000
FTUS45 KLKN 292320
TAFEKO
TAF
KEKO 292320Z 3000/3024 VRB05KT P6SM SKC
     FM301700 23009KT P6SM FEW200=



000
FTUS45 KLKN 292320
TAFWMC
TAF
KWMC 292320Z 3000/3024 VRB05KT P6SM FEW200
     FM301700 20009KT P6SM FEW200=



000
FTUS45 KLKN 292320
TAFTPH
TAF
KTPH 292320Z 3000/3024 19009KT P6SM FEW100
     FM300200 36009KT P6SM SKC
     FM301400 20009KT P6SM SKC=



000
FTUS45 KLKN 292320
TAFELY
TAF
KELY 292320Z 3000/3024 18009KT P6SM SCT100=



000
FTUS45 KLKN 292320
TAFELY
TAF
KELY 292320Z 3000/3024 18009KT P6SM SCT100=



000
FTUS45 KLKN 292320
TAFWMC
TAF
KWMC 292320Z 3000/3024 VRB05KT P6SM FEW200
     FM301700 20009KT P6SM FEW200=



000
FTUS45 KLKN 292320
TAFTPH
TAF
KTPH 292320Z 3000/3024 19009KT P6SM FEW100
     FM300200 36009KT P6SM SKC
     FM301400 20009KT P6SM SKC=



000
FTUS45 KLKN 292320
TAFEKO
TAF
KEKO 292320Z 3000/3024 VRB05KT P6SM SKC
     FM301700 23009KT P6SM FEW200=



000
FTUS45 KLKN 292320
TAFEKO
TAF
KEKO 292320Z 3000/3024 VRB05KT P6SM SKC
     FM301700 23009KT P6SM FEW200=



000
FTUS45 KLKN 292320
TAFTPH
TAF
KTPH 292320Z 3000/3024 19009KT P6SM FEW100
     FM300200 36009KT P6SM SKC
     FM301400 20009KT P6SM SKC=



000
FTUS45 KLKN 292320
TAFWMC
TAF
KWMC 292320Z 3000/3024 VRB05KT P6SM FEW200
     FM301700 20009KT P6SM FEW200=



000
FTUS45 KLKN 292320
TAFWMC
TAF
KWMC 292320Z 3000/3024 VRB05KT P6SM FEW200
     FM301700 20009KT P6SM FEW200=



000
FTUS45 KLKN 292320
TAFTPH
TAF
KTPH 292320Z 3000/3024 19009KT P6SM FEW100
     FM300200 36009KT P6SM SKC
     FM301400 20009KT P6SM SKC=



000
FTUS45 KLKN 292320
TAFELY
TAF
KELY 292320Z 3000/3024 18009KT P6SM SCT100=



000
FTUS45 KLKN 292320
TAFELY
TAF
KELY 292320Z 3000/3024 18009KT P6SM SCT100=



000
FTUS45 KLKN 291745
TAFWMC
TAF
KWMC 291745Z 2918/3018 VRB05KT P6SM FEW200
     FM301700 20009KT P6SM FEW200=



000
FTUS45 KLKN 291745
TAFTPH
TAF
KTPH 291745Z 2918/3018 19009KT P6SM FEW100
     FM300200 36009KT P6SM SKC
     FM301400 20009KT P6SM SKC=



000
FTUS45 KLKN 291745
TAFEKO
TAF
KEKO 291745Z 2918/3018 VRB05KT P6SM SKC
     FM301700 23009KT P6SM FEW200=



000
FTUS45 KLKN 291745
TAFELY
TAF
KELY 291745Z 2918/3018 VRB06KT P6SM SCT100
     FM300500 18009KT P6SM SKC=



000
FTUS45 KLKN 291745
TAFELY
TAF
KELY 291745Z 2918/3018 VRB06KT P6SM SCT100
     FM300500 18009KT P6SM SKC=



000
FTUS45 KLKN 291745
TAFTPH
TAF
KTPH 291745Z 2918/3018 19009KT P6SM FEW100
     FM300200 36009KT P6SM SKC
     FM301400 20009KT P6SM SKC=



000
FTUS45 KLKN 291745
TAFELY
TAF
KELY 291745Z 2918/3018 VRB06KT P6SM SCT100
     FM300500 18009KT P6SM SKC=



000
FTUS45 KLKN 291745
TAFEKO
TAF
KEKO 291745Z 2918/3018 VRB05KT P6SM SKC
     FM301700 23009KT P6SM FEW200=



000
FTUS45 KLKN 291745
TAFTPH
TAF
KTPH 291745Z 2918/3018 19009KT P6SM FEW100
     FM300200 36009KT P6SM SKC
     FM301400 20009KT P6SM SKC=



000
FTUS45 KLKN 291745
TAFEKO
TAF
KEKO 291745Z 2918/3018 VRB05KT P6SM SKC
     FM301700 23009KT P6SM FEW200=



000
FTUS45 KLKN 291745
TAFWMC
TAF
KWMC 291745Z 2918/3018 VRB05KT P6SM FEW200
     FM301700 20009KT P6SM FEW200=



000
FTUS45 KLKN 291745
TAFWMC
TAF
KWMC 291745Z 2918/3018 VRB05KT P6SM FEW200
     FM301700 20009KT P6SM FEW200=



000
FTUS45 KLKN 291745
TAFTPH
TAF
KTPH 291745Z 2918/3018 19009KT P6SM FEW100
     FM300200 36009KT P6SM SKC
     FM301400 20009KT P6SM SKC=



000
FTUS45 KLKN 291745
TAFWMC
TAF
KWMC 291745Z 2918/3018 VRB05KT P6SM FEW200
     FM301700 20009KT P6SM FEW200=



000
FTUS45 KLKN 291745
TAFELY
TAF
KELY 291745Z 2918/3018 VRB06KT P6SM SCT100
     FM300500 18009KT P6SM SKC=



000
FTUS45 KLKN 291745
TAFEKO
TAF
KEKO 291745Z 2918/3018 VRB05KT P6SM SKC
     FM301700 23009KT P6SM FEW200=



    US Dept of Commerce
    National Oceanic and Atmospheric Administration
    National Weather Service
    1325 East West Highway
    Silver Spring, MD 20910
    Page Author: NWS Internet Services Team
Disclaimer
Information Quality
Credits
Glossary
Privacy Policy
Freedom of Information Act (FOIA)
About Us
Career Opportunities